Time;durP1;ratioP1;P1;durP2;ratioP2;P2;SDS_P1;SDS_P2;PMS_P1;PMS_P2;Temp;Humidity;BMP_temperature;BMP_pressure;BME280_temperature;BME280_humidity;BME280_pressure;Samples;Min_cycle;Max_cycle;Signal;HPM_P1;HPM_P2
2023/12/12 00:00:45;;;;;;;45.63;35.75;;;;;;;12.86;100.00;101340.78;143723;641;47010;-75
2023/12/12 00:03:11;;;;;;;37.45;27.95;;;;;;;12.74;100.00;101354.81;143723;566;47004;-75
2023/12/12 00:05:38;;;;;;;33.65;25.67;;;;;;;12.76;100.00;101351.09;143722;575;47008;-74
2023/12/12 00:08:04;;;;;;;34.90;27.87;;;;;;;12.84;100.00;101359.84;143723;572;47006;-75
2023/12/12 00:10:31;;;;;;;47.80;37.97;;;;;;;12.84;100.00;101343.69;143722;586;47010;-75
2023/12/12 00:12:57;;;;;;;50.20;38.80;;;;;;;12.87;100.00;101342.44;143720;647;47006;-74
2023/12/12 00:15:23;;;;;;;44.20;37.22;;;;;;;12.91;100.00;101335.63;143722;626;47008;-75
2023/12/12 00:17:50;;;;;;;51.90;42.03;;;;;;;12.98;100.00;101331.09;143722;595;47006;-75
2023/12/12 00:20:16;;;;;;;48.72;40.58;;;;;;;12.97;100.00;101325.91;143722;637;47011;-75
2023/12/12 00:22:42;;;;;;;46.42;37.35;;;;;;;12.99;100.00;101337.34;143725;650;46017;-74
2023/12/12 00:25:08;;;;;;;37.70;29.55;;;;;;;12.98;100.00;101328.41;143720;578;47008;-75
2023/12/12 00:27:35;;;;;;;36.58;29.67;;;;;;;12.94;100.00;101337.09;143721;575;47004;-75
2023/12/12 00:30:01;;;;;;;32.58;26.75;;;;;;;12.96;100.00;101326.94;143721;596;47012;-75
2023/12/12 00:32:28;;;;;;;33.22;25.92;;;;;;;12.94;100.00;101334.38;143719;659;47006;-75
2023/12/12 00:34:54;;;;;;;29.80;23.80;;;;;;;12.94;100.00;101321.75;143722;573;47008;-75
2023/12/12 00:37:20;;;;;;;33.97;28.70;;;;;;;13.06;100.00;101316.59;143720;582;47004;-74
2023/12/12 00:39:46;;;;;;;38.88;29.15;;;;;;;13.10;100.00;101307.09;143720;639;47010;-74
2023/12/12 00:42:13;;;;;;;34.08;27.83;;;;;;;13.04;100.00;101307.91;143722;567;47007;-76
2023/12/12 00:44:39;;;;;;;41.55;32.53;;;;;;;12.91;100.00;101316.75;143720;591;47920;-75
2023/12/12 00:47:06;;;;;;;47.62;34.05;;;;;;;12.99;100.00;101313.88;143723;584;47004;-75
2023/12/12 00:49:32;;;;;;;39.78;31.95;;;;;;;12.98;100.00;101308.69;143721;701;47012;-75
2023/12/12 00:51:58;;;;;;;40.67;32.17;;;;;;;12.94;100.00;101302.88;143722;582;47006;-75
2023/12/12 00:54:24;;;;;;;44.35;30.65;;;;;;;12.92;100.00;101309.50;143722;656;47008;-75
2023/12/12 00:56:50;;;;;;;40.42;30.65;;;;;;;12.95;100.00;101315.34;143723;592;46014;-75
2023/12/12 00:59:17;;;;;;;43.05;31.70;;;;;;;12.93;100.00;101311.16;143722;583;47010;-75
2023/12/12 01:01:43;;;;;;;45.42;33.33;;;;;;;12.82;100.00;101323.31;143720;600;47006;-75
2023/12/12 01:04:10;;;;;;;56.88;38.83;;;;;;;12.84;100.00;101324.81;143722;579;47008;-75
2023/12/12 01:06:36;;;;;;;58.80;39.63;;;;;;;12.82;100.00;101316.09;143724;583;47008;-75
2023/12/12 01:09:02;;;;;;;49.53;35.78;;;;;;;12.79;100.00;101300.31;143723;572;47010;-75
2023/12/12 01:11:29;;;;;;;41.60;32.28;;;;;;;12.77;100.00;101293.47;143720;625;47006;-75
2023/12/12 01:13:55;;;;;;;43.58;33.53;;;;;;;12.78;100.00;101295.13;143723;583;47008;-73
2023/12/12 01:16:21;;;;;;;46.17;35.20;;;;;;;12.84;100.00;101288.91;143722;631;47004;-74
2023/12/12 01:18:48;;;;;;;46.65;34.00;;;;;;;12.82;100.00;101288.28;143721;615;47010;-75
2023/12/12 01:21:14;;;;;;;50.22;34.20;;;;;;;12.82;100.00;101289.12;143720;601;47006;-75
2023/12/12 01:23:53;;;;;;;45.75;33.72;;;;;;;12.81;100.00;101287.47;143723;681;47008;-75
2023/12/12 01:26:22;;;;;;;43.67;32.65;;;;;;;12.76;100.00;101276.44;143723;593;47006;-74
2023/12/12 01:28:49;;;;;;;44.22;31.05;;;;;;;12.72;100.00;101291.34;143719;645;47010;-75
2023/12/12 01:31:15;;;;;;;40.45;30.50;;;;;;;12.59;100.00;101292.94;143715;639;47006;-75
2023/12/12 01:33:43;;;;;;;42.15;31.92;;;;;;;12.55;100.00;101312.41;143720;581;47008;-74
2023/12/12 01:36:09;;;;;;;41.78;31.92;;;;;;;12.57;100.00;101307.66;143720;584;48002;-75
2023/12/12 01:38:36;;;;;;;42.03;30.12;;;;;;;12.54;100.00;101298.06;143721;625;47012;-75
2023/12/12 01:41:03;;;;;;;38.78;28.38;;;;;;;12.49;100.00;101286.22;143720;723;47007;-74
2023/12/12 01:43:31;;;;;;;37.55;28.00;;;;;;;12.48;100.00;101292.66;143720;582;47008;-74
2023/12/12 01:46:00;;;;;;;40.63;29.10;;;;;;;12.43;100.00;101302.19;143724;583;47004;-75
2023/12/12 01:48:28;;;;;;;42.22;30.35;;;;;;;12.47;100.00;101299.91;143720;592;47012;-75
2023/12/12 01:50:54;;;;;;;35.00;26.58;;;;;;;12.45;100.00;101296.56;143720;640;47006;-75
2023/12/12 01:53:24;;;;;;;39.67;28.50;;;;;;;12.36;100.00;101290.50;143723;575;47008;-75
2023/12/12 01:55:52;;;;;;;36.17;27.25;;;;;;;12.41;100.00;101296.16;143724;607;47005;-75
2023/12/12 01:58:20;;;;;;;39.10;30.52;;;;;;;12.39;100.00;101297.34;143724;584;47013;-75
2023/12/12 02:00:47;;;;;;;40.72;28.67;;;;;;;12.42;100.00;101307.75;143721;624;47006;-74
2023/12/12 04:00:58;;;;;;;27.23;15.00;;;;;;;11.71;100.00;101279.78;143724;572;47006;-74
2023/12/12 04:03:24;;;;;;;20.10;13.98;;;;;;;11.71;100.00;101274.41;143721;633;47009;-75
2023/12/12 04:05:50;;;;;;;24.00;15.10;;;;;;;11.68;100.00;101274.78;143724;585;47004;-75
2023/12/12 04:08:17;;;;;;;26.55;16.10;;;;;;;11.70;100.00;101275.44;143726;612;46010;-74
2023/12/12 04:10:44;;;;;;;24.05;17.62;;;;;;;11.69;100.00;101273.78;143721;603;47007;-74
2023/12/12 04:13:10;;;;;;;23.48;16.48;;;;;;;11.74;100.00;101270.50;143724;610;46008;-75
2023/12/12 04:15:36;;;;;;;20.88;15.80;;;;;;;11.73;100.00;101276.91;143722;630;47004;-74
2023/12/12 04:18:03;;;;;;;27.37;17.58;;;;;;;11.76;100.00;101281.91;143723;665;47007;-74
2023/12/12 04:20:30;;;;;;;28.30;21.45;;;;;;;11.75;100.00;101281.06;143722;660;47006;-74
2023/12/12 04:22:56;;;;;;;30.85;24.15;;;;;;;11.78;100.00;101285.25;143725;638;47002;-75
2023/12/12 04:25:23;;;;;;;28.80;23.27;;;;;;;11.75;100.00;101289.12;143724;575;47004;-75
2023/12/12 04:27:49;;;;;;;31.30;22.20;;;;;;;11.73;100.00;101296.59;143723;586;47012;-74
2023/12/12 04:30:15;;;;;;;32.63;23.12;;;;;;;11.75;100.00;101286.44;143722;643;47006;-74
2023/12/12 04:32:42;;;;;;;29.12;21.80;;;;;;;11.76;100.00;101288.09;143723;583;47004;-75
2023/12/12 04:35:09;;;;;;;28.92;21.58;;;;;;;11.71;100.00;101281.63;143726;572;47006;-75
2023/12/12 04:37:37;;;;;;;29.12;22.00;;;;;;;11.70;100.00;101280.81;143727;590;46010;-75
2023/12/12 04:40:05;;;;;;;29.33;22.00;;;;;;;11.75;100.00;101288.31;143726;650;46007;-75
2023/12/12 04:42:31;;;;;;;31.40;22.33;;;;;;;11.82;100.00;101287.34;143727;588;47002;-74
2023/12/12 04:44:57;;;;;;;30.58;22.37;;;;;;;11.87;100.00;101286.75;143719;694;47004;-74
2023/12/12 04:47:24;;;;;;;28.83;21.10;;;;;;;11.87;100.00;101294.84;143722;672;47011;-75
2023/12/12 04:49:51;;;;;;;26.25;19.10;;;;;;;11.86;100.00;101290.47;143721;615;47927;-75
2023/12/12 04:52:17;;;;;;;25.90;19.08;;;;;;;11.81;100.00;101285.69;143723;634;47008;-74
2023/12/12 04:54:43;;;;;;;28.75;18.67;;;;;;;11.86;100.00;101293.16;143723;674;47005;-74
2023/12/12 04:57:10;;;;;;;24.15;18.48;;;;;;;11.84;100.00;101297.91;143723;580;47010;-74
2023/12/12 04:59:36;;;;;;;25.55;18.55;;;;;;;11.86;100.00;101295.03;143723;590;47006;-74
2023/12/12 05:02:03;;;;;;;28.48;17.50;;;;;;;11.78;100.00;101306.78;143724;732;47008;-74
2023/12/12 05:04:30;;;;;;;27.77;18.83;;;;;;;11.75;100.00;101294.50;143723;602;47004;-75
2023/12/12 05:06:56;;;;;;;28.50;18.65;;;;;;;11.72;100.00;101311.06;143723;584;47010;-75
2023/12/12 05:09:22;;;;;;;37.50;21.08;;;;;;;11.68;100.00;101299.81;143723;639;47006;-75
2023/12/12 05:11:48;;;;;;;28.87;20.23;;;;;;;11.68;100.00;101307.91;143724;586;47004;-75
2023/12/12 05:14:15;;;;;;;30.23;20.48;;;;;;;11.70;100.00;101310.41;143724;579;47004;-74
2023/12/12 05:16:41;;;;;;;30.50;19.75;;;;;;;11.73;100.00;101301.97;143725;683;47010;-75
2023/12/12 05:19:07;;;;;;;32.80;20.02;;;;;;;11.68;100.00;101309.78;143722;659;47006;-74
2023/12/12 05:21:33;;;;;;;33.08;20.98;;;;;;;11.74;100.00;101300.09;143726;641;46010;-75
2023/12/12 05:24:00;;;;;;;35.25;20.37;;;;;;;11.72;100.00;101302.16;143724;709;47004;-75
2023/12/12 05:26:27;;;;;;;34.72;21.08;;;;;;;11.60;100.00;101297.28;143724;676;47013;-75
2023/12/12 05:28:54;;;;;;;31.62;19.80;;;;;;;11.61;100.00;101292.72;143722;574;47006;-75
2023/12/12 05:31:22;;;;;;;37.30;21.52;;;;;;;11.56;100.00;101287.91;143725;589;47009;-74
2023/12/12 05:33:48;;;;;;;35.38;22.23;;;;;;;11.49;100.00;101290.53;143723;608;47004;-75
2023/12/12 05:36:15;;;;;;;35.85;22.25;;;;;;;11.48;100.00;101296.09;143723;629;47008;-74
2023/12/12 05:38:42;;;;;;;36.05;22.75;;;;;;;11.55;100.00;101293.50;143724;596;47005;-74
2023/12/12 05:41:08;;;;;;;30.60;22.83;;;;;;;11.56;100.00;101285.22;143726;699;47008;-74
2023/12/12 05:43:35;;;;;;;36.38;23.80;;;;;;;11.58;100.00;101285.03;143726;653;47004;-74
2023/12/12 05:46:02;;;;;;;37.20;23.23;;;;;;;11.55;100.00;101280.06;143724;638;47012;-73
2023/12/12 05:48:29;;;;;;;45.12;24.48;;;;;;;11.55;100.00;101278.19;143723;575;47006;-74
2023/12/12 05:50:56;;;;;;;39.88;23.95;;;;;;;11.55;100.00;101280.06;143723;580;47008;-74
2023/12/12 05:53:22;;;;;;;44.85;23.55;;;;;;;11.55;100.00;101283.56;143724;587;47002;-75
2023/12/12 05:55:48;;;;;;;35.67;23.02;;;;;;;11.53;100.00;101286.44;143725;684;47008;-75
2023/12/12 05:58:15;;;;;;;43.17;23.87;;;;;;;11.55;100.00;101290.81;143723;591;47004;-74
2023/12/12 06:00:41;;;;;;;41.88;24.87;;;;;;;11.58;100.00;101302.00;143723;570;47006;-75
2023/12/12 06:03:08;;;;;;;46.45;25.08;;;;;;;11.52;100.00;101321.59;143724;573;47002;-75
2023/12/12 06:05:34;;;;;;;44.78;25.20;;;;;;;11.47;100.00;101322.16;143724;592;47008;-75
2023/12/12 06:08:01;;;;;;;42.08;24.80;;;;;;;11.52;100.00;101322.44;143723;573;47004;-71
2023/12/12 06:10:27;;;;;;;51.10;26.33;;;;;;;11.58;100.00;101310.09;143723;623;47007;-74
2023/12/12 06:12:54;;;;;;;49.90;25.65;;;;;;;11.66;100.00;101309.13;143724;584;47002;-74
2023/12/12 06:15:20;;;;;;;45.83;22.92;;;;;;;11.72;100.00;101305.69;143724;566;47008;-75
2023/12/12 06:17:47;;;;;;;41.50;23.83;;;;;;;11.76;100.00;101306.94;143723;596;47004;-75
2023/12/12 06:20:14;;;;;;;47.67;26.30;;;;;;;11.86;100.00;101297.72;143724;577;47006;-75
2023/12/12 06:22:40;;;;;;;61.05;32.60;;;;;;;11.92;100.00;101305.88;143724;638;47004;-76
2023/12/12 06:25:08;;;;;;;61.90;34.60;;;;;;;11.98;100.00;101317.72;143724;690;47009;-75
2023/12/12 06:27:35;;;;;;;55.38;31.05;;;;;;;11.98;100.00;101315.91;143723;573;47002;-75
2023/12/12 06:30:01;;;;;;;53.00;29.60;;;;;;;11.96;100.00;101325.16;143713;666;48000;-75
2023/12/12 06:32:27;;;;;;;54.58;32.90;;;;;;;12.03;100.00;101334.16;143725;647;47002;-75
2023/12/12 06:34:54;;;;;;;50.55;32.10;;;;;;;12.10;100.00;101332.34;143724;750;47010;-75
2023/12/12 06:37:20;;;;;;;46.03;27.48;;;;;;;12.23;100.00;101353.19;143722;642;47004;-74
2023/12/12 06:39:47;;;;;;;45.50;28.25;;;;;;;12.31;100.00;101368.38;143721;594;47014;-75
2023/12/12 06:42:13;;;;;;;53.75;29.67;;;;;;;12.39;100.00;101365.56;143724;636;47002;-76
2023/12/12 06:44:41;;;;;;;40.53;27.55;;;;;;;12.44;100.00;101375.72;143726;687;47008;-71
2023/12/12 06:47:11;;;;;;;46.88;26.95;;;;;;;12.43;100.00;101384.84;143728;568;46005;-70
2023/12/12 06:49:37;;;;;;;47.28;26.83;;;;;;;12.48;100.00;101389.63;143726;600;46010;-76
2023/12/12 06:52:04;;;;;;;42.92;27.08;;;;;;;12.58;100.00;101385.59;143724;634;47004;-75
2023/12/12 06:54:30;;;;;;;44.83;22.08;;;;;;;12.67;100.00;101398.94;143723;690;47009;-75
2023/12/12 06:56:57;;;;;;;34.90;22.92;;;;;;;12.73;100.00;101417.00;143722;617;47004;-75
2023/12/12 06:59:23;;;;;;;37.78;22.45;;;;;;;12.76;100.00;101419.31;143723;606;46006;-75
2023/12/12 07:01:51;;;;;;;37.72;21.95;;;;;;;12.69;100.00;101419.25;143724;590;47006;-75
2023/12/12 07:04:17;;;;;;;42.28;21.10;;;;;;;12.71;100.00;101406.41;143724;606;47010;-75
2023/12/12 07:06:44;;;;;;;36.70;22.33;;;;;;;12.78;100.00;101406.47;143721;625;47004;-74
2023/12/12 07:09:12;;;;;;;35.05;22.15;;;;;;;12.82;100.00;101396.97;143725;636;47006;-74
2023/12/12 07:11:39;;;;;;;36.42;23.23;;;;;;;12.75;100.00;101385.28;143726;588;47004;-75
2023/12/12 07:14:05;;;;;;;44.40;24.83;;;;;;;12.71;100.00;101370.53;143724;590;47010;-75
2023/12/12 07:16:31;;;;;;;32.08;23.20;;;;;;;12.91;100.00;101340.19;143726;615;46012;-73
2023/12/12 07:18:58;;;;;;;31.62;22.13;;;;;;;12.98;100.00;101324.87;143726;574;47006;-74
2023/12/12 07:21:24;;;;;;;33.13;22.55;;;;;;;13.03;100.00;101325.94;143724;651;47002;-75
2023/12/12 07:23:51;;;;;;;28.80;20.90;;;;;;;13.12;100.00;101342.78;143725;561;47008;-73
2023/12/12 07:26:21;;;;;;;40.00;22.15;;;;;;;13.20;100.00;101352.56;143723;597;47926;-74
2023/12/12 07:28:47;;;;;;;40.55;22.90;;;;;;;13.32;100.00;101353.69;143724;583;47006;-73
2023/12/12 07:31:14;;;;;;;35.08;21.37;;;;;;;13.45;100.00;101355.59;143721;654;47003;-75
2023/12/12 07:33:41;;;;;;;40.08;23.70;;;;;;;13.60;100.00;101355.47;143721;567;47010;-74
2023/12/12 07:36:07;;;;;;;42.80;23.65;;;;;;;13.62;100.00;101337.19;143721;620;47004;-75
2023/12/12 07:38:34;;;;;;;38.10;24.42;;;;;;;13.61;100.00;101313.09;143722;620;47924;-75
2023/12/12 07:41:00;;;;;;;38.42;22.95;;;;;;;13.62;100.00;101312.91;143720;607;47002;-74
2023/12/12 07:43:27;;;;;;;34.63;24.35;;;;;;;13.66;100.00;101313.31;143721;607;47008;-74
2023/12/12 07:45:53;;;;;;;36.03;24.02;;;;;;;13.85;100.00;101314.41;143720;577;47004;-74
2023/12/12 07:48:20;;;;;;;37.58;25.70;;;;;;;14.02;100.00;101327.50;143723;641;47006;-75
2023/12/12 07:50:46;;;;;;;41.35;26.15;;;;;;;14.16;100.00;101328.31;143722;575;47004;-75
2023/12/12 07:53:12;;;;;;;39.42;24.77;;;;;;;14.28;100.00;101334.78;143723;641;47010;-74
2023/12/12 07:55:39;;;;;;;32.30;22.05;;;;;;;14.42;100.00;101334.78;143723;573;47004;-74
2023/12/12 07:58:05;;;;;;;32.40;24.25;;;;;;;14.44;100.00;101311.09;143722;582;47006;-74
2023/12/12 08:00:31;;;;;;;32.42;24.00;;;;;;;14.59;100.00;101310.84;143723;568;47004;-74
2023/12/12 08:02:58;;;;;;;31.12;22.62;;;;;;;14.66;100.00;101308.97;143721;594;47008;-74
2023/12/12 08:05:25;;;;;;;40.50;22.67;;;;;;;14.69;100.00;101314.81;143717;581;50002;-74
2023/12/12 08:07:51;;;;;;;40.03;25.33;;;;;;;14.83;100.00;101333.69;143720;573;47007;-74
2023/12/12 08:10:18;;;;;;;31.48;22.98;;;;;;;14.90;100.00;101347.22;143726;747;46006;-73
2023/12/12 08:12:44;;;;;;;34.63;23.55;;;;;;;15.06;100.00;101354.03;143722;649;47008;-74
2023/12/12 08:15:10;;;;;;;33.08;22.67;;;;;;;15.15;100.00;101341.94;143722;582;47002;-74
2023/12/12 08:17:38;;;;;;;36.75;22.17;;;;;;;15.25;100.00;101328.78;143722;595;47000;-74
2023/12/12 08:20:05;;;;;;;36.92;20.83;;;;;;;15.50;100.00;101327.19;143721;591;47004;-74
2023/12/12 08:22:31;;;;;;;40.72;21.67;;;;;;;15.58;100.00;101316.94;143723;591;47010;-74
2023/12/12 08:24:58;;;;;;;35.50;21.37;;;;;;;15.86;100.00;101325.75;143721;622;47004;-73
2023/12/12 08:27:24;;;;;;;36.75;21.98;;;;;;;16.13;100.00;101336.41;143723;575;47006;-74
2023/12/12 08:29:50;;;;;;;28.58;20.83;;;;;;;16.27;100.00;101345.25;143722;621;47004;-74
2023/12/12 08:32:17;;;;;;;25.80;19.85;;;;;;;16.41;100.00;101324.28;143723;577;47008;-74
2023/12/12 08:34:43;;;;;;;32.15;21.58;;;;;;;16.73;100.00;101302.47;143720;590;47004;-74
2023/12/12 08:37:09;;;;;;;31.10;20.30;;;;;;;16.88;100.00;101302.94;143721;602;48006;-75
2023/12/12 08:39:36;;;;;;;30.33;21.40;;;;;;;16.66;100.00;101329.66;143724;616;47002;-74
2023/12/12 08:42:03;;;;;;;28.73;20.23;;;;;;;16.72;100.00;101325.22;143723;578;47010;-74
2023/12/12 08:44:30;;;;;;;30.20;20.52;;;;;;;16.80;100.00;101333.09;143720;573;47006;-74
2023/12/12 08:46:57;;;;;;;29.27;19.48;;;;;;;17.03;100.00;101348.72;143723;623;47008;-74
2023/12/12 08:49:25;;;;;;;27.73;19.35;;;;;;;17.08;100.00;101356.16;143723;607;47004;-73
2023/12/12 08:51:51;;;;;;;29.98;17.67;;;;;;;17.45;100.00;101358.03;143726;584;47010;-75
2023/12/12 08:54:18;;;;;;;28.55;19.35;;;;;;;17.70;99.07;101357.91;143722;621;47006;-74
2023/12/12 08:56:52;;;;;;;24.77;15.93;;;;;;;18.02;93.75;101350.34;143724;594;47008;-74
2023/12/12 08:59:21;;;;;;;;;;;;;;;18.32;90.50;101357.62;143727;983;47004;-73
2023/12/12 09:01:48;;;;;;;22.60;13.85;;;;;;;22.20;79.36;101352.97;143725;617;47013;-74
2023/12/12 09:04:16;;;;;;;18.58;13.13;;;;;;;28.19;56.52;101345.97;143720;589;47016;-74
2023/12/12 09:06:45;;;;;;;20.40;13.13;;;;;;;31.88;44.09;101344.81;143721;567;47008;-75
2023/12/12 09:09:12;;;;;;;19.17;13.07;;;;;;;33.48;37.47;101341.78;143729;590;47002;-74
2023/12/12 09:11:39;;;;;;;18.70;13.05;;;;;;;34.36;35.06;101343.69;143717;627;47019;-74
2023/12/12 09:14:07;;;;;;;20.25;13.20;;;;;;;32.71;34.51;101323.28;143722;598;47006;-74
2023/12/12 09:16:33;;;;;;;18.83;13.88;;;;;;;27.66;40.39;101356.19;143722;711;47002;-74
2023/12/12 09:18:59;;;;;;;20.37;12.93;;;;;;;24.41;44.95;101359.53;143721;595;47004;-74
2023/12/12 09:21:26;;;;;;;24.83;12.30;;;;;;;22.55;49.66;101346.13;143720;652;47008;-75
2023/12/12 09:23:52;;;;;;;19.45;13.85;;;;;;;21.64;53.63;101350.53;143719;596;47004;-74
2023/12/12 09:26:19;;;;;;;19.48;12.75;;;;;;;21.11;56.04;101348.28;143725;577;46006;-74
2023/12/12 09:28:47;;;;;;;17.95;13.23;;;;;;;21.08;56.83;101358.87;143722;733;47004;-75
2023/12/12 09:31:13;;;;;;;20.50;14.27;;;;;;;20.41;59.69;101342.37;143723;625;47010;-75
2023/12/12 09:33:39;;;;;;;24.25;13.88;;;;;;;20.05;62.88;101323.56;143721;647;47004;-74
2023/12/12 09:36:06;;;;;;;23.73;15.45;;;;;;;19.80;65.05;101324.72;143723;790;47006;-74
2023/12/12 09:38:33;;;;;;;24.37;15.80;;;;;;;19.54;66.64;101318.84;143722;577;47002;-74
2023/12/12 09:41:00;;;;;;;21.70;15.70;;;;;;;19.47;68.31;101322.78;143719;718;47008;-75
2023/12/12 09:43:28;;;;;;;33.22;17.12;;;;;;;19.40;70.45;101314.75;143723;580;47004;-73
2023/12/12 09:45:57;;;;;;;23.92;16.02;;;;;;;19.32;70.97;101317.84;143719;582;48006;-74
2023/12/12 09:48:23;;;;;;;41.37;23.27;;;;;;;19.49;71.76;101315.19;143720;956;47002;-75
2023/12/12 09:50:50;;;;;;;41.17;23.67;;;;;;;19.29;71.38;101312.88;143722;940;47008;-74
2023/12/12 09:53:19;;;;;;;36.92;21.45;;;;;;;19.68;72.15;101316.62;143720;580;47925;-74
2023/12/12 09:55:46;;;;;;;28.77;19.75;;;;;;;20.49;69.79;101325.59;143724;761;46006;-74
2023/12/12 09:58:12;;;;;;;30.77;19.08;;;;;;;21.32;69.50;101323.94;143724;806;47004;-74
2023/12/12 10:00:39;;;;;;;25.45;17.95;;;;;;;22.01;67.46;101316.16;143724;977;47008;-75
2023/12/12 10:03:08;;;;;;;30.88;18.02;;;;;;;22.87;65.42;101315.09;143721;589;47004;-74
2023/12/12 10:05:38;;;;;;;28.73;17.30;;;;;;;23.73;62.90;101319.47;143722;572;47006;-74
2023/12/12 10:08:05;;;;;;;21.30;14.68;;;;;;;24.20;59.24;101310.12;143724;584;47002;-75
2023/12/12 10:10:31;;;;;;;26.65;16.58;;;;;;;25.03;57.73;101312.66;143722;676;47010;-74
2023/12/12 10:12:58;;;;;;;23.55;15.23;;;;;;;25.88;56.27;101308.03;143722;577;47004;-75
2023/12/12 10:15:27;;;;;;;22.30;14.95;;;;;;;27.14;52.19;101302.84;143721;575;47004;-74
2023/12/12 10:17:57;;;;;;;25.98;14.38;;;;;;;29.77;47.59;101292.31;143722;710;47006;-74
2023/12/12 10:20:28;;;;;;;20.77;15.32;;;;;;;31.81;43.97;101289.75;143722;635;47010;-75
2023/12/12 10:22:58;;;;;;;20.45;14.57;;;;;;;33.48;40.03;101291.66;143720;576;47004;-75
2023/12/12 10:25:24;;;;;;;18.75;14.15;;;;;;;34.38;37.55;101280.03;143723;626;47006;-75
2023/12/12 10:27:54;;;;;;;29.37;14.80;;;;;;;31.63;38.88;101290.91;143723;593;47002;-74
2023/12/12 10:30:23;;;;;;;29.15;16.33;;;;;;;29.07;42.38;101294.50;143721;581;47010;-74
2023/12/12 10:32:52;;;;;;;25.90;14.85;;;;;;;27.81;44.06;101293.56;143721;597;47004;-69
2023/12/12 10:35:20;;;;;;;22.50;14.00;;;;;;;27.30;45.70;101306.19;143724;590;47006;-74
2023/12/12 10:37:46;;;;;;;18.23;12.40;;;;;;;26.94;45.36;101305.56;143723;575;47002;-73
2023/12/12 10:40:19;;;;;;;14.60;11.15;;;;;;;26.77;46.03;101299.69;143718;627;48004;-76
2023/12/12 10:42:45;;;;;;;15.68;9.88;;;;;;;26.64;44.87;101299.28;143721;580;47004;-74
2023/12/12 10:45:16;;;;;;;14.35;10.40;;;;;;;27.07;45.38;101303.22;143723;684;47007;-75
2023/12/12 10:47:50;;;;;;;15.38;9.82;;;;;;;27.39;45.12;101283.16;143720;680;47006;-74
2023/12/12 10:50:17;;;;;;;17.17;9.38;;;;;;;27.57;44.78;101283.47;143723;558;47008;-73
2023/12/12 10:52:46;;;;;;;13.55;8.57;;;;;;;27.62;44.22;101288.09;143721;635;47005;-73
2023/12/12 10:55:14;;;;;;;12.52;9.15;;;;;;;27.38;44.51;101292.53;143722;606;47006;-75
2023/12/12 10:57:47;;;;;;;15.63;8.82;;;;;;;27.22;44.02;101288.38;143723;577;47002;-72
2023/12/12 11:00:15;;;;;;;13.85;10.10;;;;;;;27.16;44.71;101281.31;143724;620;47008;-73
2023/12/12 11:02:43;;;;;;;14.52;9.90;;;;;;;27.67;43.59;101288.00;143722;627;47008;-75
2023/12/12 11:05:12;;;;;;;14.52;9.52;;;;;;;28.34;42.99;101275.78;143722;566;47006;-75
2023/12/12 11:07:40;;;;;;;17.00;9.93;;;;;;;28.68;42.75;101273.75;143723;595;47004;-73
2023/12/12 11:10:09;;;;;;;12.63;9.52;;;;;;;29.10;40.82;101282.00;143721;650;47008;-75
2023/12/12 11:12:44;;;;;;;14.80;10.05;;;;;;;28.54;41.43;101271.81;143721;656;47004;-73
2023/12/12 11:15:13;;;;;;;16.00;9.65;;;;;;;28.33;41.66;101273.34;143722;595;47007;-74
2023/12/12 11:17:39;;;;;;;16.62;10.30;;;;;;;28.19;40.85;101278.84;143722;677;47004;-74
2023/12/12 11:20:17;;;;;;;14.45;11.25;;;;;;;27.99;41.96;101278.91;143720;736;47008;-74
2023/12/12 11:22:46;;;;;;;18.33;10.90;;;;;;;27.59;41.52;101277.66;143721;685;47004;-74
2023/12/12 11:25:20;;;;;;;20.60;11.68;;;;;;;27.17;41.70;101261.69;143721;709;47006;-73
2023/12/12 11:27:50;;;;;;;17.02;11.00;;;;;;;26.57;43.40;101263.00;143722;646;47006;-74
2023/12/12 11:30:28;;;;;;;17.87;10.80;;;;;;;25.89;42.56;101262.03;143723;573;48008;-75
2023/12/12 11:32:55;;;;;;;14.73;9.45;;;;;;;25.81;42.53;101258.00;143723;656;47011;-74
2023/12/12 11:35:32;;;;;;;20.60;11.80;;;;;;;26.21;43.61;101259.84;143725;611;47006;-74
2023/12/12 11:38:02;;;;;;;15.15;11.23;;;;;;;26.28;42.53;101268.59;143719;591;47007;-75
2023/12/12 11:40:29;;;;;;;13.27;10.20;;;;;;;26.78;42.60;101268.25;143721;590;47008;-75
2023/12/12 11:43:25;;;;;;;13.85;10.77;;;;;;;27.56;42.12;101269.97;143720;584;47004;-74
2023/12/12 11:45:54;;;;;;;13.68;9.52;;;;;;;27.92;41.09;101269.38;143724;698;46013;-75
2023/12/12 11:48:21;;;;;;;12.45;9.52;;;;;;;28.29;40.88;101262.09;143724;567;47010;-75
2023/12/12 11:50:47;;;;;;;13.20;9.77;;;;;;;28.66;41.20;101264.94;143723;670;47009;-74
2023/12/12 11:53:40;;;;;;;16.73;9.60;;;;;;;28.33;40.06;101256.75;143723;574;47004;-75
2023/12/12 11:56:07;;;;;;;10.18;7.12;;;;;;;27.97;39.17;101261.81;143724;586;46006;-74
2023/12/12 11:58:34;;;;;;;9.85;8.25;;;;;;;27.79;39.96;101257.16;143724;577;47004;-74
2023/12/12 12:01:00;;;;;;;14.25;8.70;;;;;;;27.58;40.83;101249.22;143722;567;47010;-74
2023/12/12 12:03:26;;;;;;;16.70;10.63;;;;;;;27.32;41.30;101262.59;143721;575;47008;-75
2023/12/12 12:05:53;;;;;;;17.20;11.73;;;;;;;26.67;43.04;101258.50;143723;629;47006;-74
2023/12/12 12:08:21;;;;;;;16.73;11.38;;;;;;;26.43;42.68;101256.56;143724;598;47004;-75
2023/12/12 12:10:57;;;;;;;22.08;12.10;;;;;;;26.13;43.64;101250.28;143723;626;47008;-74
2023/12/12 12:13:23;;;;;;;16.42;12.48;;;;;;;25.90;43.84;101235.38;143724;590;46023;-74
2023/12/12 12:15:50;;;;;;;20.70;12.18;;;;;;;25.84;44.74;101240.91;143722;598;47006;-74
2023/12/12 12:18:27;;;;;;;19.15;12.32;;;;;;;25.58;44.29;101237.56;143721;568;47002;-73
2023/12/12 12:20:53;;;;;;;25.08;10.65;;;;;;;25.50;45.28;101235.44;143723;624;47008;-72
2023/12/12 12:23:20;;;;;;;15.60;11.25;;;;;;;25.16;44.97;101236.19;143722;573;47008;-71
2023/12/12 12:25:46;;;;;;;13.48;9.98;;;;;;;24.72;44.84;101233.13;143722;640;47006;-71
2023/12/12 12:28:12;;;;;;;11.18;7.93;;;;;;;24.68;44.85;101241.09;143720;608;47011;-72
2023/12/12 12:30:46;;;;;;;19.37;9.82;;;;;;;24.72;44.78;101235.88;143721;577;47011;-70
2023/12/12 12:33:13;;;;;;;21.50;9.43;;;;;;;24.92;45.05;101237.69;143721;584;47012;-71
2023/12/12 12:35:52;;;;;;;8.82;6.90;;;;;;;24.51;43.72;101246.91;143721;567;47926;-71
2023/12/12 12:38:28;;;;;;;19.08;8.38;;;;;;;23.86;45.51;101247.59;143724;586;47004;-69
2023/12/12 12:40:55;;;;;;;12.88;7.32;;;;;;;23.84;46.10;101246.19;143722;590;47010;-70
2023/12/12 12:43:25;;;;;;;13.48;7.00;;;;;;;23.88;45.96;101247.28;143720;730;47005;-70
2023/12/12 12:45:52;;;;;;;7.87;6.18;;;;;;;23.70;45.41;101254.19;143720;651;47006;-69
2023/12/12 12:48:19;;;;;;;15.43;6.97;;;;;;;23.61;45.74;101251.97;143721;667;47004;-70
2023/12/12 12:50:47;;;;;;;14.00;7.30;;;;;;;23.47;46.74;101257.16;143723;606;47008;-69
2023/12/12 12:53:14;;;;;;;9.05;6.50;;;;;;;23.38;48.18;101261.56;143721;584;47004;-69
2023/12/12 12:55:42;;;;;;;9.80;6.85;;;;;;;23.34;48.72;101265.91;143723;725;47006;-69
2023/12/12 12:58:12;;;;;;;8.98;6.70;;;;;;;23.23;48.42;101262.34;143722;589;47002;-69
2023/12/12 13:00:39;;;;;;;9.68;6.05;;;;;;;23.14;48.26;101263.94;143722;592;47002;-69
2023/12/12 13:03:05;;;;;;;8.23;6.20;;;;;;;22.94;48.81;101257.31;143721;591;47004;-70
2023/12/12 13:05:32;;;;;;;12.25;7.18;;;;;;;22.81;49.23;101260.56;143723;573;47926;-68